ADDS METAR Data INFO
IDs: Format: Raw Decoded Include TAF

Data at: 1003 UTC 12 Dec 2017

KFIT 120952Z AUTO 29003KT 10SM BKN038 BKN046 OVC070 M01/M03 A2988 RMK AO2 SNB07E22 SLP124 P0000 T10111033
KFIT 120852Z AUTO 00000KT 7SM OVC050 M01/M04 A2990 RMK AO2 SNB0753E46 SLP131 P0000 60000 T10111039 58023
KFIT 120752Z AUTO 32003KT 9SM OVC044 M01/M04 A2994 RMK AO2 SLP143 T10061044
KFIT 120652Z AUTO 00000KT 10SM OVC050 M01/M04 A2996 RMK AO2 SLP150 T10061044
KFIT 120552Z AUTO 00000KT 10SM OVC080 M01/M04 A2997 RMK AO2 SLP153 T10111044 11006 21022 56011
KFIT 120452Z AUTO 00000KT 10SM BKN048 OVC095 M01/M04 A2998 RMK AO2 SLP156 T10061044 400391033
KFIT 120352Z AUTO 32003KT 9SM BKN050 BKN110 M01/M04 A2999 RMK AO2 SLP160 T10111044
KFIT 120252Z AUTO 00000KT 10SM FEW050 M02/M04 A3000 RMK AO2 SLP165 T10171044 50001
KFIT 120152Z AUTO 00000KT 10SM CLR M02/M05 A3001 RMK AO2 SLP168 T10171050
KFIT 120052Z AUTO 00000KT 10SM CLR M02/M05 A3001 RMK AO2 SLP168 T10171050
KFIT 112352Z AUTO 00000KT 10SM CLR M02/M06 A3000 RMK AO2 SLP164 T10171056 10039 21033 50008
KFIT 112252Z AUTO 00000KT 10SM CLR M03/M06 A3001 RMK AO2 SLP167 T10281061
KFIT 112152Z AUTO 00000KT 10SM CLR 00/M07 A2999 RMK AO2 SLP161 T00001067
KFIT 112052Z AUTO 28003KT 10SM CLR 02/M07 A2998 RMK AO2 SLP155 T00171072 53009
KFIT 111952Z AUTO 32008KT 10SM SCT048 03/M07 A2995 RMK AO2 SLP147 T00281067
KFIT 111852Z AUTO 31009KT 10SM SCT045 04/M07 A2994 RMK AO2 SLP144 T00391067
KFIT 111752Z AUTO 30008KT 10SM FEW040 03/M06 A2995 RMK AO2 SLP145 T00331061 10033 20006 56007
KFIT 111652Z AUTO 27009G14KT 10SM BKN039 03/M06 A2996 RMK AO2 SLP148 T00281061
KFIT 111552Z AUTO 29011G20KT 10SM CLR 03/M06 A2996 RMK AO2 SLP148 T00281056
KFIT 111452Z AUTO 27009KT 10SM CLR 02/M04 A2997 RMK AO2 SLP152 T00171044 53010
KFIT 111352Z AUTO 28004KT 10SM OVC085 01/M04 A2996 RMK AO2 SLP149 T00061044
KFIT 111252Z AUTO 22005KT 10SM OVC080 01/M04 A2995 RMK AO2 SLP147 T00061044
KFIT 111152Z AUTO 30003KT 10SM OVC085 01/M05 A2994 RMK AO2 SLP143 T00061050 10017 20006 53010
KFIT 111052Z AUTO VRB03KT 10SM OVC090 01/M05 A2992 RMK AO2 SLP136 T00061050
KFIT 110952Z AUTO VRB05KT 10SM BKN060 OVC090 01/M06 A2992 RMK AO2 SLP135 T00061056
KFIT 110852Z AUTO VRB05KT 10SM OVC090 01/M06 A2991 RMK AO2 SLP132 T00061056 58006
KFIT 110752Z AUTO VRB04KT 10SM CLR 01/M06 A2992 RMK AO2 SLP135 T00061056
KFIT 110652Z AUTO VRB06KT 10SM CLR 01/M06 A2993 RMK AO2 SLP138 T00111056
KFIT 110552Z AUTO 25007KT 10SM OVC090 02/M05 A2993 RMK AO2 SLP138 T00171050 10017 21028 50000
KFIT 110452Z AUTO 24007KT 10SM BKN120 02/M05 A2993 RMK AO2 SLP138 T00171050 400331028
KFIT 110352Z AUTO 21005KT 10SM OVC120 01/M05 A2993 RMK AO2 SLP138 T00061050
KFIT 110252Z AUTO 22003KT 10SM FEW120 00/M05 A2993 RMK AO2 SLP139 T00001050 51007
KFIT 110152Z AUTO 22005KT 10SM BKN110 00/M06 A2992 RMK AO2 SLP137 T00001056
KFIT 110052Z AUTO 18005KT 10SM CLR M02/M06 A2991 RMK AO2 SLP134 T10171056
KFIT 102352Z AUTO 20004KT 10SM CLR M01/M05 A2990 RMK AO2 SLP131 T10061050 10033 21011 51022
KFIT 102252Z AUTO 21004KT 10SM CLR 01/M06 A2989 RMK AO2 SLP128 T00111056